Gavle, Sweden

6:39 AM CEST on August 22, 2014 (GMT +0200)
Hasslo Air Base | Change Station
CLOSE
Current Station
Airport
Location: Vasteras,
Elevation: 20 ft
Nearby Weather Stations

Elev 20 ft 59.59 °N, 16.63 °E | Updated 19 minutes ago

Mostly Cloudy
Mostly Cloudy
55 °F
Feels Like 55 °F
N
12
Wind Variable Wind from SW

Today
High -- | Low -- °F
--% Chance of Precip.
Yesterday
High -- | Low -- °F
Precip. -- in
5:23 AM 8:23 PM
Waning Crescent, 10% visible
Pressure 29.68 in
Visibility 6.2 miles
Clouds Mostly Cloudy 800 ft
Dew Point 52 °F
Humidity 88%
Rainfall 0.00 in
Snow Depth Not available.
UV 0 out of 12
Pollen Not available.
Air Quality Not available.
Flu Activity Not available.
METAR ESOW 220420Z 23010KT 9999 BKN008 13/11 Q1005

More Conditions Fewer Conditions

Pressure 29.68 in
Visibility 6.2 miles
Clouds Mostly Cloudy 800 ft
Dew Point 52 °F
Humidity 88%
Rainfall 0.00 in
Snow Depth Not available.
UV 0 out of 12
Pollen Not available.
Air Quality Not available.
Flu Activity Not available.
METAR ESOW 220420Z 23010KT 9999 BKN008 13/11 Q1005

More Conditions Fewer Conditions

10-Day Weather Forecast

Almanac

Astronomy

Aug. 22, 2014 Rise Set
Actual Time 5:23 AM CEST 8:23 PM CEST
Civil Twilight 4:35 AM CEST 9:11 PM CEST
Nautical Twilight 3:29 AM CEST 10:15 PM CEST
Astronomical Twilight 1:35 AM CEST 12:01 AM CEST
Moon 2:08 AM CEST 6:36 PM CEST
Length of Visible Light 16h 35m
Length of Day
15h 00m
Tomorrow will be 5m 13s shorter.
Waning Crescent, 10% of the Moon is Illuminated
Today
Waning Crescent
Aug 25
New
Sep 2
First Quarter
Sep 8
Full
Sep 15
Last Quarter

Yesterday's Extremes

Country Highs Country Lows

Community

WunderPhotos

Upload Photos

1,746,127 photos uploaded!

Nearby

Snow Depth

Not available.

Earthquake Activity

City Distance Mag. Time & Date
No recent earthquake activity has been reported nearby.
Minimum magnitude displayed is 2.5.

Coastal Water Temperatures

Place Temperature
No Stations Reporting

Nearby Weather Stations